Stove Pipe Wells, California
Current Conditions -  °F | °C
As of 4:52 AM on Monday 22 Dec 2014 (Local Time) from KDRA Reporting Station
Clear Clear  
Wind Chill: 40°   Ceiling: Unl
Heat Index: 40°   Visibility: 10mi
Dew Point: 36°   Wind: 0mph
Humidity: 86%   Direction: NA
Pressure: 30.12"   Gusts: NA
Location:  36.3785°N, 117.161°W
Report Text: KDRA 221252Z AUTO 00000KT 10SM CLR 04/02 A3012 RMK AO2 SLP190 T00440022 $
Loading
Personal Weather Stations






























Interactive Weather Map New forecast layout! Learn more

10-Day Weather Forecast

Advertisements
Track Severe Weather on mobile